sensor_id;sensor_type;location;lat;lon;timestamp;P1;durP1;ratioP1;P2;durP2;ratioP2
73454;SDS011;61690;51.824;6.306;2022-08-01T00:01:43;13.13;;;6.50;;
73454;SDS011;61690;51.824;6.306;2022-08-01T00:04:08;9.48;;;5.57;;
73454;SDS011;61690;51.824;6.306;2022-08-01T00:06:33;9.30;;;5.43;;
73454;SDS011;61690;51.824;6.306;2022-08-01T00:08:59;10.13;;;5.70;;
73454;SDS011;61690;51.824;6.306;2022-08-01T00:11:24;10.90;;;5.70;;
73454;SDS011;61690;51.824;6.306;2022-08-01T00:13:50;10.20;;;6.20;;
73454;SDS011;61690;51.824;6.306;2022-08-01T00:16:15;9.53;;;5.53;;
73454;SDS011;61690;51.824;6.306;2022-08-01T00:18:41;10.43;;;5.20;;
73454;SDS011;61690;51.824;6.306;2022-08-01T00:21:06;8.68;;;5.55;;
73454;SDS011;61690;51.824;6.306;2022-08-01T00:23:32;11.57;;;6.70;;
73454;SDS011;61690;51.824;6.306;2022-08-01T00:25:57;11.87;;;6.17;;
73454;SDS011;61690;51.824;6.306;2022-08-01T00:28:23;9.83;;;5.27;;
73454;SDS011;61690;51.824;6.306;2022-08-01T00:30:48;11.03;;;6.07;;
73454;SDS011;61690;51.824;6.306;2022-08-01T00:33:13;11.03;;;5.57;;
73454;SDS011;61690;51.824;6.306;2022-08-01T00:35:39;11.07;;;6.20;;
73454;SDS011;61690;51.824;6.306;2022-08-01T00:38:04;11.20;;;6.47;;
73454;SDS011;61690;51.824;6.306;2022-08-01T00:40:29;11.33;;;6.07;;
73454;SDS011;61690;51.824;6.306;2022-08-01T00:42:55;11.13;;;6.23;;
73454;SDS011;61690;51.824;6.306;2022-08-01T00:45:20;12.32;;;5.90;;
73454;SDS011;61690;51.824;6.306;2022-08-01T00:47:45;11.13;;;5.87;;
73454;SDS011;61690;51.824;6.306;2022-08-01T00:50:11;10.03;;;5.30;;
73454;SDS011;61690;51.824;6.306;2022-08-01T00:52:37;8.82;;;4.97;;
73454;SDS011;61690;51.824;6.306;2022-08-01T00:55:04;11.63;;;4.90;;
73454;SDS011;61690;51.824;6.306;2022-08-01T00:57:30;8.02;;;4.85;;
73454;SDS011;61690;51.824;6.306;2022-08-01T00:59:55;8.90;;;4.27;;
73454;SDS011;61690;51.824;6.306;2022-08-01T01:02:21;8.75;;;4.35;;
73454;SDS011;61690;51.824;6.306;2022-08-01T01:04:47;8.90;;;4.20;;
73454;SDS011;61690;51.824;6.306;2022-08-01T01:13:25;8.48;;;4.68;;
73454;SDS011;61690;51.824;6.306;2022-08-01T01:16:01;7.05;;;4.07;;
73454;SDS011;61690;51.824;6.306;2022-08-01T01:18:54;8.13;;;3.90;;
73454;SDS011;61690;51.824;6.306;2022-08-01T01:22:00;7.00;;;3.67;;
73454;SDS011;61690;51.824;6.306;2022-08-01T01:27:16;7.45;;;4.32;;
73454;SDS011;61690;51.824;6.306;2022-08-01T01:29:52;6.75;;;3.78;;
73454;SDS011;61690;51.824;6.306;2022-08-01T01:32:31;7.45;;;3.70;;
73454;SDS011;61690;51.824;6.306;2022-08-01T01:35:00;8.23;;;4.00;;
73454;SDS011;61690;51.824;6.306;2022-08-01T01:37:30;8.68;;;4.50;;
73454;SDS011;61690;51.824;6.306;2022-08-01T01:39:58;7.22;;;4.20;;
73454;SDS011;61690;51.824;6.306;2022-08-01T01:42:25;8.88;;;4.25;;
73454;SDS011;61690;51.824;6.306;2022-08-01T01:44:51;9.23;;;4.82;;
73454;SDS011;61690;51.824;6.306;2022-08-01T01:47:19;8.77;;;4.10;;
73454;SDS011;61690;51.824;6.306;2022-08-01T01:49:46;8.13;;;4.50;;
73454;SDS011;61690;51.824;6.306;2022-08-01T01:52:13;8.60;;;4.13;;
73454;SDS011;61690;51.824;6.306;2022-08-01T01:54:48;7.07;;;3.97;;
73454;SDS011;61690;51.824;6.306;2022-08-01T01:57:16;7.22;;;3.70;;
73454;SDS011;61690;51.824;6.306;2022-08-01T01:59:44;6.77;;;3.80;;
73454;SDS011;61690;51.824;6.306;2022-08-01T02:02:10;10.30;;;5.13;;
73454;SDS011;61690;51.824;6.306;2022-08-01T02:04:38;9.88;;;5.30;;
73454;SDS011;61690;51.824;6.306;2022-08-01T02:07:07;8.40;;;4.60;;
73454;SDS011;61690;51.824;6.306;2022-08-01T02:09:35;8.70;;;4.97;;
73454;SDS011;61690;51.824;6.306;2022-08-01T02:12:03;8.63;;;4.40;;
73454;SDS011;61690;51.824;6.306;2022-08-01T02:14:30;7.85;;;3.95;;
73454;SDS011;61690;51.824;6.306;2022-08-01T02:16:59;6.60;;;3.85;;
73454;SDS011;61690;51.824;6.306;2022-08-01T02:19:28;9.30;;;4.30;;
73454;SDS011;61690;51.824;6.306;2022-08-01T02:21:56;8.25;;;4.10;;
73454;SDS011;61690;51.824;6.306;2022-08-01T02:24:40;6.20;;;3.83;;
73454;SDS011;61690;51.824;6.306;2022-08-01T02:27:24;6.82;;;3.63;;
73454;SDS011;61690;51.824;6.306;2022-08-01T02:29:55;7.78;;;3.90;;
73454;SDS011;61690;51.824;6.306;2022-08-01T02:32:26;7.78;;;3.72;;
73454;SDS011;61690;51.824;6.306;2022-08-01T02:34:55;8.90;;;5.20;;
73454;SDS011;61690;51.824;6.306;2022-08-01T02:37:22;7.97;;;4.53;;
73454;SDS011;61690;51.824;6.306;2022-08-01T02:39:53;7.20;;;4.05;;
73454;SDS011;61690;51.824;6.306;2022-08-01T02:42:19;7.90;;;4.30;;
73454;SDS011;61690;51.824;6.306;2022-08-01T02:44:46;7.85;;;4.30;;
73454;SDS011;61690;51.824;6.306;2022-08-01T02:47:13;7.88;;;4.60;;
73454;SDS011;61690;51.824;6.306;2022-08-01T02:49:44;8.30;;;4.90;;
73454;SDS011;61690;51.824;6.306;2022-08-01T02:52:12;8.23;;;4.40;;
73454;SDS011;61690;51.824;6.306;2022-08-01T02:54:39;6.97;;;3.85;;
73454;SDS011;61690;51.824;6.306;2022-08-01T02:57:07;8.93;;;5.15;;
73454;SDS011;61690;51.824;6.306;2022-08-01T02:59:33;10.23;;;6.20;;
73454;SDS011;61690;51.824;6.306;2022-08-01T03:02:02;11.10;;;5.53;;
73454;SDS011;61690;51.824;6.306;2022-08-01T03:04:30;10.05;;;5.50;;
73454;SDS011;61690;51.824;6.306;2022-08-01T03:06:58;7.97;;;5.10;;
73454;SDS011;61690;51.824;6.306;2022-08-01T03:09:28;12.38;;;6.40;;
73454;SDS011;61690;51.824;6.306;2022-08-01T03:11:57;9.15;;;5.68;;
73454;SDS011;61690;51.824;6.306;2022-08-01T03:14:26;8.67;;;5.10;;
73454;SDS011;61690;51.824;6.306;2022-08-01T03:16:55;8.73;;;4.63;;
73454;SDS011;61690;51.824;6.306;2022-08-01T03:19:22;9.93;;;5.53;;
73454;SDS011;61690;51.824;6.306;2022-08-01T03:21:50;8.90;;;4.97;;
73454;SDS011;61690;51.824;6.306;2022-08-01T03:24:17;7.18;;;4.35;;
73454;SDS011;61690;51.824;6.306;2022-08-01T03:26:44;8.10;;;4.90;;
73454;SDS011;61690;51.824;6.306;2022-08-01T03:29:15;7.85;;;4.55;;
73454;SDS011;61690;51.824;6.306;2022-08-01T03:31:43;8.00;;;4.85;;
73454;SDS011;61690;51.824;6.306;2022-08-01T03:34:10;8.55;;;5.00;;
73454;SDS011;61690;51.824;6.306;2022-08-01T03:36:39;9.38;;;5.10;;
73454;SDS011;61690;51.824;6.306;2022-08-01T03:39:14;8.87;;;4.60;;
73454;SDS011;61690;51.824;6.306;2022-08-01T03:41:43;7.82;;;4.80;;
73454;SDS011;61690;51.824;6.306;2022-08-01T03:44:27;9.20;;;5.25;;
73454;SDS011;61690;51.824;6.306;2022-08-01T03:47:00;7.93;;;4.82;;
73454;SDS011;61690;51.824;6.306;2022-08-01T03:49:33;8.25;;;4.72;;
73454;SDS011;61690;51.824;6.306;2022-08-01T03:52:03;9.97;;;4.83;;
73454;SDS011;61690;51.824;6.306;2022-08-01T03:54:32;8.80;;;4.95;;
73454;SDS011;61690;51.824;6.306;2022-08-01T03:57:00;7.57;;;4.80;;
73454;SDS011;61690;51.824;6.306;2022-08-01T03:59:26;8.00;;;4.85;;
73454;SDS011;61690;51.824;6.306;2022-08-01T04:01:53;8.32;;;4.68;;
73454;SDS011;61690;51.824;6.306;2022-08-01T04:04:20;9.27;;;6.03;;
73454;SDS011;61690;51.824;6.306;2022-08-01T04:06:46;9.95;;;5.55;;
73454;SDS011;61690;51.824;6.306;2022-08-01T04:09:15;10.15;;;4.80;;
73454;SDS011;61690;51.824;6.306;2022-08-01T04:11:41;7.77;;;4.73;;
73454;SDS011;61690;51.824;6.306;2022-08-01T04:14:06;8.80;;;4.68;;
73454;SDS011;61690;51.824;6.306;2022-08-01T04:16:32;8.00;;;4.70;;
73454;SDS011;61690;51.824;6.306;2022-08-01T04:18:57;7.83;;;4.60;;
73454;SDS011;61690;51.824;6.306;2022-08-01T04:21:23;7.73;;;4.40;;
73454;SDS011;61690;51.824;6.306;2022-08-01T04:23:54;8.75;;;4.97;;
73454;SDS011;61690;51.824;6.306;2022-08-01T04:26:22;9.38;;;5.55;;
73454;SDS011;61690;51.824;6.306;2022-08-01T04:28:50;9.18;;;5.10;;
73454;SDS011;61690;51.824;6.306;2022-08-01T04:31:17;8.00;;;4.50;;
73454;SDS011;61690;51.824;6.306;2022-08-01T04:33:45;8.90;;;4.77;;
73454;SDS011;61690;51.824;6.306;2022-08-01T04:36:14;8.23;;;4.53;;
73454;SDS011;61690;51.824;6.306;2022-08-01T04:38:44;8.38;;;4.80;;
73454;SDS011;61690;51.824;6.306;2022-08-01T04:41:13;9.60;;;4.70;;
73454;SDS011;61690;51.824;6.306;2022-08-01T04:43:40;7.75;;;4.30;;
73454;SDS011;61690;51.824;6.306;2022-08-01T04:46:06;8.53;;;4.30;;
73454;SDS011;61690;51.824;6.306;2022-08-01T04:48:34;9.43;;;4.72;;
73454;SDS011;61690;51.824;6.306;2022-08-01T04:51:02;7.88;;;4.60;;
73454;SDS011;61690;51.824;6.306;2022-08-01T04:53:28;8.43;;;4.20;;
73454;SDS011;61690;51.824;6.306;2022-08-01T04:55:53;8.43;;;4.00;;
73454;SDS011;61690;51.824;6.306;2022-08-01T04:58:18;8.23;;;4.30;;
73454;SDS011;61690;51.824;6.306;2022-08-01T05:00:44;7.47;;;4.30;;
73454;SDS011;61690;51.824;6.306;2022-08-01T05:03:10;8.35;;;4.45;;
73454;SDS011;61690;51.824;6.306;2022-08-01T05:05:35;9.27;;;4.00;;
73454;SDS011;61690;51.824;6.306;2022-08-01T05:08:01;7.57;;;4.07;;
73454;SDS011;61690;51.824;6.306;2022-08-01T05:10:26;6.90;;;3.80;;
73454;SDS011;61690;51.824;6.306;2022-08-01T05:12:52;7.28;;;3.90;;
73454;SDS011;61690;51.824;6.306;2022-08-01T05:15:18;8.60;;;3.92;;
73454;SDS011;61690;51.824;6.306;2022-08-01T05:17:44;8.13;;;3.70;;
73454;SDS011;61690;51.824;6.306;2022-08-01T05:20:11;7.15;;;3.60;;
73454;SDS011;61690;51.824;6.306;2022-08-01T05:22:36;6.53;;;3.72;;
73454;SDS011;61690;51.824;6.306;2022-08-01T05:25:02;8.02;;;3.70;;
73454;SDS011;61690;51.824;6.306;2022-08-01T05:27:30;8.85;;;4.20;;
73454;SDS011;61690;51.824;6.306;2022-08-01T05:29:55;7.80;;;3.97;;
73454;SDS011;61690;51.824;6.306;2022-08-01T05:32:21;8.32;;;4.10;;
73454;SDS011;61690;51.824;6.306;2022-08-01T05:34:46;7.13;;;3.70;;
73454;SDS011;61690;51.824;6.306;2022-08-01T05:37:12;6.97;;;3.77;;
73454;SDS011;61690;51.824;6.306;2022-08-01T05:39:37;6.60;;;3.60;;
73454;SDS011;61690;51.824;6.306;2022-08-01T05:42:03;6.35;;;3.58;;
73454;SDS011;61690;51.824;6.306;2022-08-01T05:44:28;7.83;;;3.53;;
73454;SDS011;61690;51.824;6.306;2022-08-01T05:46:53;6.07;;;3.33;;
73454;SDS011;61690;51.824;6.306;2022-08-01T05:49:19;6.37;;;3.57;;
73454;SDS011;61690;51.824;6.306;2022-08-01T05:51:44;6.93;;;3.40;;
73454;SDS011;61690;51.824;6.306;2022-08-01T05:54:10;7.78;;;3.78;;
73454;SDS011;61690;51.824;6.306;2022-08-01T05:56:35;8.30;;;4.00;;
73454;SDS011;61690;51.824;6.306;2022-08-01T05:59:00;7.50;;;3.73;;
73454;SDS011;61690;51.824;6.306;2022-08-01T06:01:26;7.53;;;3.20;;
73454;SDS011;61690;51.824;6.306;2022-08-01T06:03:51;6.70;;;3.35;;
73454;SDS011;61690;51.824;6.306;2022-08-01T06:06:19;9.70;;;4.30;;
73454;SDS011;61690;51.824;6.306;2022-08-01T06:08:45;7.70;;;3.80;;
73454;SDS011;61690;51.824;6.306;2022-08-01T06:11:10;6.80;;;3.10;;
73454;SDS011;61690;51.824;6.306;2022-08-01T06:13:35;6.70;;;3.67;;
73454;SDS011;61690;51.824;6.306;2022-08-01T06:16:00;9.47;;;3.40;;
73454;SDS011;61690;51.824;6.306;2022-08-01T06:18:26;8.30;;;3.40;;
73454;SDS011;61690;51.824;6.306;2022-08-01T06:20:51;7.03;;;3.80;;
73454;SDS011;61690;51.824;6.306;2022-08-01T06:23:17;7.23;;;3.70;;
73454;SDS011;61690;51.824;6.306;2022-08-01T06:25:42;7.80;;;3.40;;
73454;SDS011;61690;51.824;6.306;2022-08-01T06:28:08;10.50;;;4.35;;
73454;SDS011;61690;51.824;6.306;2022-08-01T06:30:33;7.97;;;4.20;;
73454;SDS011;61690;51.824;6.306;2022-08-01T06:32:59;7.97;;;3.90;;
73454;SDS011;61690;51.824;6.306;2022-08-01T06:35:25;7.65;;;3.92;;
73454;SDS011;61690;51.824;6.306;2022-08-01T06:37:53;8.63;;;4.30;;
73454;SDS011;61690;51.824;6.306;2022-08-01T06:40:18;8.37;;;4.30;;
73454;SDS011;61690;51.824;6.306;2022-08-01T06:42:44;10.30;;;4.00;;
73454;SDS011;61690;51.824;6.306;2022-08-01T06:45:11;8.90;;;4.35;;
73454;SDS011;61690;51.824;6.306;2022-08-01T06:47:38;9.35;;;4.50;;
73454;SDS011;61690;51.824;6.306;2022-08-01T06:50:10;7.82;;;2.92;;
73454;SDS011;61690;51.824;6.306;2022-08-01T06:52:36;7.23;;;3.60;;
73454;SDS011;61690;51.824;6.306;2022-08-01T06:55:02;6.55;;;3.50;;
73454;SDS011;61690;51.824;6.306;2022-08-01T06:57:29;9.65;;;4.00;;
73454;SDS011;61690;51.824;6.306;2022-08-01T06:59:54;8.53;;;3.73;;
73454;SDS011;61690;51.824;6.306;2022-08-01T07:02:20;6.45;;;3.55;;
73454;SDS011;61690;51.824;6.306;2022-08-01T07:04:47;7.15;;;2.83;;
73454;SDS011;61690;51.824;6.306;2022-08-01T07:07:15;7.57;;;2.67;;
73454;SDS011;61690;51.824;6.306;2022-08-01T07:09:40;6.28;;;2.42;;
73454;SDS011;61690;51.824;6.306;2022-08-01T07:12:07;6.10;;;2.60;;
73454;SDS011;61690;51.824;6.306;2022-08-01T07:14:33;5.05;;;2.20;;
73454;SDS011;61690;51.824;6.306;2022-08-01T07:17:01;5.00;;;2.40;;
73454;SDS011;61690;51.824;6.306;2022-08-01T07:19:36;6.35;;;2.60;;
73454;SDS011;61690;51.824;6.306;2022-08-01T07:22:02;6.53;;;2.28;;
73454;SDS011;61690;51.824;6.306;2022-08-01T07:24:27;6.40;;;2.50;;
73454;SDS011;61690;51.824;6.306;2022-08-01T07:26:54;5.10;;;2.10;;
73454;SDS011;61690;51.824;6.306;2022-08-01T07:29:25;4.80;;;2.10;;
73454;SDS011;61690;51.824;6.306;2022-08-01T07:32:00;4.85;;;1.90;;
73454;SDS011;61690;51.824;6.306;2022-08-01T07:34:25;5.78;;;2.30;;
73454;SDS011;61690;51.824;6.306;2022-08-01T07:36:51;6.13;;;2.00;;
73454;SDS011;61690;51.824;6.306;2022-08-01T07:39:16;4.57;;;1.85;;
73454;SDS011;61690;51.824;6.306;2022-08-01T07:41:45;5.70;;;1.90;;
73454;SDS011;61690;51.824;6.306;2022-08-01T07:44:25;4.47;;;1.80;;
73454;SDS011;61690;51.824;6.306;2022-08-01T07:46:50;4.50;;;1.67;;
73454;SDS011;61690;51.824;6.306;2022-08-01T07:49:15;4.07;;;1.30;;
73454;SDS011;61690;51.824;6.306;2022-08-01T07:51:41;4.23;;;1.50;;
73454;SDS011;61690;51.824;6.306;2022-08-01T07:54:06;3.93;;;1.30;;
73454;SDS011;61690;51.824;6.306;2022-08-01T07:56:49;4.82;;;1.30;;
73454;SDS011;61690;51.824;6.306;2022-08-01T07:59:14;3.20;;;0.95;;
73454;SDS011;61690;51.824;6.306;2022-08-01T08:01:40;3.10;;;0.97;;
73454;SDS011;61690;51.824;6.306;2022-08-01T08:04:06;2.90;;;0.80;;
73454;SDS011;61690;51.824;6.306;2022-08-01T08:06:32;2.83;;;0.60;;
73454;SDS011;61690;51.824;6.306;2022-08-01T08:09:00;3.00;;;0.90;;
73454;SDS011;61690;51.824;6.306;2022-08-01T08:11:25;3.03;;;0.80;;
73454;SDS011;61690;51.824;6.306;2022-08-01T08:13:51;2.60;;;0.80;;
73454;SDS011;61690;51.824;6.306;2022-08-01T08:16:16;2.63;;;0.70;;
73454;SDS011;61690;51.824;6.306;2022-08-01T08:18:41;2.73;;;0.60;;
73454;SDS011;61690;51.824;6.306;2022-08-01T08:21:07;2.97;;;0.80;;
73454;SDS011;61690;51.824;6.306;2022-08-01T08:23:32;3.10;;;0.70;;
73454;SDS011;61690;51.824;6.306;2022-08-01T08:26:16;2.45;;;0.60;;
73454;SDS011;61690;51.824;6.306;2022-08-01T08:28:41;2.80;;;0.80;;
73454;SDS011;61690;51.824;6.306;2022-08-01T08:31:07;2.93;;;0.90;;
73454;SDS011;61690;51.824;6.306;2022-08-01T08:33:33;3.42;;;1.20;;
73454;SDS011;61690;51.824;6.306;2022-08-01T08:35:58;2.90;;;0.90;;
73454;SDS011;61690;51.824;6.306;2022-08-01T08:38:24;3.53;;;0.88;;
73454;SDS011;61690;51.824;6.306;2022-08-01T08:40:52;3.47;;;1.00;;
73454;SDS011;61690;51.824;6.306;2022-08-01T08:43:17;3.35;;;0.98;;
73454;SDS011;61690;51.824;6.306;2022-08-01T08:45:43;4.25;;;1.10;;
73454;SDS011;61690;51.824;6.306;2022-08-01T08:48:10;3.40;;;1.40;;
73454;SDS011;61690;51.824;6.306;2022-08-01T08:50:40;4.20;;;1.10;;
73454;SDS011;61690;51.824;6.306;2022-08-01T08:53:06;3.15;;;1.00;;
73454;SDS011;61690;51.824;6.306;2022-08-01T08:55:34;3.30;;;1.00;;
73454;SDS011;61690;51.824;6.306;2022-08-01T08:58:00;3.40;;;1.00;;
73454;SDS011;61690;51.824;6.306;2022-08-01T09:00:30;4.13;;;1.20;;
73454;SDS011;61690;51.824;6.306;2022-08-01T09:02:56;4.00;;;1.23;;
73454;SDS011;61690;51.824;6.306;2022-08-01T09:05:22;3.57;;;1.17;;
73454;SDS011;61690;51.824;6.306;2022-08-01T09:07:51;4.18;;;1.42;;
73454;SDS011;61690;51.824;6.306;2022-08-01T09:10:17;3.75;;;1.15;;
73454;SDS011;61690;51.824;6.306;2022-08-01T09:13:01;3.87;;;1.30;;
73454;SDS011;61690;51.824;6.306;2022-08-01T09:15:38;4.80;;;1.40;;
73454;SDS011;61690;51.824;6.306;2022-08-01T09:26:15;4.78;;;1.27;;
73454;SDS011;61690;51.824;6.306;2022-08-01T09:28:42;5.60;;;0.90;;
73454;SDS011;61690;51.824;6.306;2022-08-01T09:31:09;4.72;;;1.90;;
73454;SDS011;61690;51.824;6.306;2022-08-01T09:33:57;4.77;;;1.60;;
73454;SDS011;61690;51.824;6.306;2022-08-01T09:36:26;5.68;;;2.30;;
73454;SDS011;61690;51.824;6.306;2022-08-01T09:39:11;5.57;;;2.17;;
73454;SDS011;61690;51.824;6.306;2022-08-01T09:41:38;6.13;;;1.90;;
73454;SDS011;61690;51.824;6.306;2022-08-01T09:44:03;4.77;;;2.00;;
73454;SDS011;61690;51.824;6.306;2022-08-01T09:46:29;4.97;;;1.40;;
73454;SDS011;61690;51.824;6.306;2022-08-01T09:48:58;4.45;;;1.30;;
73454;SDS011;61690;51.824;6.306;2022-08-01T09:51:35;4.80;;;1.67;;
73454;SDS011;61690;51.824;6.306;2022-08-01T09:54:03;4.00;;;1.43;;
73454;SDS011;61690;51.824;6.306;2022-08-01T09:56:37;4.28;;;1.20;;
73454;SDS011;61690;51.824;6.306;2022-08-01T09:59:03;4.50;;;1.10;;
73454;SDS011;61690;51.824;6.306;2022-08-01T10:01:41;3.85;;;1.42;;
73454;SDS011;61690;51.824;6.306;2022-08-01T10:04:09;4.32;;;1.25;;
73454;SDS011;61690;51.824;6.306;2022-08-01T10:06:47;3.50;;;1.10;;
73454;SDS011;61690;51.824;6.306;2022-08-01T10:09:31;4.95;;;1.40;;
73454;SDS011;61690;51.824;6.306;2022-08-01T10:12:01;4.18;;;1.52;;
73454;SDS011;61690;51.824;6.306;2022-08-01T10:14:28;3.50;;;1.20;;
73454;SDS011;61690;51.824;6.306;2022-08-01T10:16:55;5.28;;;1.30;;
73454;SDS011;61690;51.824;6.306;2022-08-01T10:19:23;3.97;;;1.23;;
73454;SDS011;61690;51.824;6.306;2022-08-01T10:21:50;3.72;;;1.20;;
73454;SDS011;61690;51.824;6.306;2022-08-01T10:24:21;3.47;;;1.20;;
73454;SDS011;61690;51.824;6.306;2022-08-01T10:26:48;4.20;;;1.50;;
73454;SDS011;61690;51.824;6.306;2022-08-01T10:29:17;3.90;;;1.10;;
73454;SDS011;61690;51.824;6.306;2022-08-01T10:31:45;4.67;;;1.30;;
73454;SDS011;61690;51.824;6.306;2022-08-01T10:34:12;4.35;;;1.23;;
73454;SDS011;61690;51.824;6.306;2022-08-01T10:36:41;5.80;;;1.38;;
73454;SDS011;61690;51.824;6.306;2022-08-01T10:39:09;4.15;;;1.10;;
73454;SDS011;61690;51.824;6.306;2022-08-01T10:41:36;4.22;;;1.23;;
73454;SDS011;61690;51.824;6.306;2022-08-01T10:44:02;4.40;;;1.07;;
73454;SDS011;61690;51.824;6.306;2022-08-01T10:46:29;3.88;;;1.20;;
73454;SDS011;61690;51.824;6.306;2022-08-01T10:49:00;3.88;;;1.08;;
73454;SDS011;61690;51.824;6.306;2022-08-01T10:51:29;3.70;;;1.20;;
73454;SDS011;61690;51.824;6.306;2022-08-01T10:53:55;3.70;;;1.30;;
73454;SDS011;61690;51.824;6.306;2022-08-01T10:56:22;3.58;;;1.20;;
73454;SDS011;61690;51.824;6.306;2022-08-01T10:58:48;4.05;;;1.45;;
73454;SDS011;61690;51.824;6.306;2022-08-01T11:03:39;3.60;;;1.23;;
73454;SDS011;61690;51.824;6.306;2022-08-01T11:06:06;4.17;;;1.50;;
73454;SDS011;61690;51.824;6.306;2022-08-01T11:08:31;3.60;;;1.30;;
73454;SDS011;61690;51.824;6.306;2022-08-01T11:11:02;3.85;;;1.30;;
73454;SDS011;61690;51.824;6.306;2022-08-01T11:16:29;4.25;;;1.38;;
73454;SDS011;61690;51.824;6.306;2022-08-01T11:18:56;4.13;;;1.20;;
73454;SDS011;61690;51.824;6.306;2022-08-01T11:21:22;3.58;;;1.20;;
73454;SDS011;61690;51.824;6.306;2022-08-01T11:24:07;4.65;;;1.40;;
73454;SDS011;61690;51.824;6.306;2022-08-01T11:26:32;3.77;;;1.30;;
73454;SDS011;61690;51.824;6.306;2022-08-01T11:29:31;3.77;;;1.50;;
73454;SDS011;61690;51.824;6.306;2022-08-01T11:31:50;4.05;;;1.35;;
73454;SDS011;61690;51.824;6.306;2022-08-01T11:34:16;3.80;;;1.17;;
73454;SDS011;61690;51.824;6.306;2022-08-01T11:36:42;4.10;;;1.13;;
73454;SDS011;61690;51.824;6.306;2022-08-01T11:41:33;3.77;;;1.53;;
73454;SDS011;61690;51.824;6.306;2022-08-01T11:44:04;4.05;;;1.40;;
73454;SDS011;61690;51.824;6.306;2022-08-01T11:52:04;3.70;;;1.33;;
73454;SDS011;61690;51.824;6.306;2022-08-01T11:54:46;3.67;;;1.25;;
73454;SDS011;61690;51.824;6.306;2022-08-01T11:59:53;4.80;;;1.40;;
73454;SDS011;61690;51.824;6.306;2022-08-01T12:02:30;4.35;;;1.40;;
73454;SDS011;61690;51.824;6.306;2022-08-01T12:07:28;4.85;;;1.30;;
73454;SDS011;61690;51.824;6.306;2022-08-01T12:10:16;4.20;;;1.20;;
73454;SDS011;61690;51.824;6.306;2022-08-01T12:12:43;3.90;;;1.40;;
73454;SDS011;61690;51.824;6.306;2022-08-01T12:15:08;4.40;;;1.70;;
73454;SDS011;61690;51.824;6.306;2022-08-01T12:17:38;4.67;;;1.53;;
73454;SDS011;61690;51.824;6.306;2022-08-01T12:20:06;4.65;;;1.40;;
73454;SDS011;61690;51.824;6.306;2022-08-01T12:22:34;4.05;;;1.50;;
73454;SDS011;61690;51.824;6.306;2022-08-01T12:27:32;4.03;;;1.60;;
73454;SDS011;61690;51.824;6.306;2022-08-01T12:29:59;3.50;;;1.30;;
73454;SDS011;61690;51.824;6.306;2022-08-01T12:32:29;4.15;;;1.40;;
73454;SDS011;61690;51.824;6.306;2022-08-01T12:35:07;5.38;;;1.50;;
73454;SDS011;61690;51.824;6.306;2022-08-01T12:37:42;4.53;;;1.67;;
73454;SDS011;61690;51.824;6.306;2022-08-01T12:40:18;4.60;;;1.48;;
73454;SDS011;61690;51.824;6.306;2022-08-01T12:42:47;4.33;;;1.83;;
73454;SDS011;61690;51.824;6.306;2022-08-01T12:45:15;4.13;;;1.50;;
73454;SDS011;61690;51.824;6.306;2022-08-01T12:47:44;7.15;;;1.58;;
73454;SDS011;61690;51.824;6.306;2022-08-01T12:50:15;6.68;;;1.63;;
73454;SDS011;61690;51.824;6.306;2022-08-01T12:52:43;4.88;;;1.60;;
73454;SDS011;61690;51.824;6.306;2022-08-01T12:57:40;6.32;;;1.70;;
73454;SDS011;61690;51.824;6.306;2022-08-01T13:00:13;5.28;;;1.77;;
73454;SDS011;61690;51.824;6.306;2022-08-01T13:02:42;4.82;;;1.58;;
73454;SDS011;61690;51.824;6.306;2022-08-01T13:05:08;5.03;;;1.52;;
73454;SDS011;61690;51.824;6.306;2022-08-01T13:10:15;4.50;;;1.40;;
73454;SDS011;61690;51.824;6.306;2022-08-01T13:12:53;5.60;;;1.65;;
73454;SDS011;61690;51.824;6.306;2022-08-01T13:15:30;4.28;;;1.48;;
73454;SDS011;61690;51.824;6.306;2022-08-01T13:17:57;4.45;;;1.45;;
73454;SDS011;61690;51.824;6.306;2022-08-01T13:20:25;3.60;;;1.50;;
73454;SDS011;61690;51.824;6.306;2022-08-01T13:22:54;4.40;;;1.60;;
73454;SDS011;61690;51.824;6.306;2022-08-01T13:25:21;4.60;;;1.55;;
73454;SDS011;61690;51.824;6.306;2022-08-01T13:28:14;4.65;;;1.65;;
73454;SDS011;61690;51.824;6.306;2022-08-01T13:30:50;4.72;;;1.50;;
73454;SDS011;61690;51.824;6.306;2022-08-01T13:33:23;3.40;;;1.20;;
73454;SDS011;61690;51.824;6.306;2022-08-01T13:35:50;5.25;;;1.52;;
73454;SDS011;61690;51.824;6.306;2022-08-01T13:38:20;3.42;;;1.40;;
73454;SDS011;61690;51.824;6.306;2022-08-01T13:41:05;5.82;;;1.67;;
73454;SDS011;61690;51.824;6.306;2022-08-01T13:43:31;4.63;;;1.77;;
73454;SDS011;61690;51.824;6.306;2022-08-01T13:45:56;5.83;;;1.70;;
73454;SDS011;61690;51.824;6.306;2022-08-01T13:48:22;5.82;;;2.00;;
73454;SDS011;61690;51.824;6.306;2022-08-01T13:50:48;5.53;;;1.50;;
73454;SDS011;61690;51.824;6.306;2022-08-01T17:58:32;5.78;;;2.30;;
73454;SDS011;61690;51.824;6.306;2022-08-01T18:00:58;6.15;;;2.35;;
73454;SDS011;61690;51.824;6.306;2022-08-01T18:03:23;6.10;;;2.30;;
73454;SDS011;61690;51.824;6.306;2022-08-01T18:05:49;6.50;;;2.20;;
73454;SDS011;61690;51.824;6.306;2022-08-01T18:08:14;9.00;;;2.70;;
73454;SDS011;61690;51.824;6.306;2022-08-01T18:10:40;7.80;;;2.50;;
73454;SDS011;61690;51.824;6.306;2022-08-01T18:13:07;8.50;;;2.25;;
73454;SDS011;61690;51.824;6.306;2022-08-01T18:15:33;5.38;;;2.10;;
73454;SDS011;61690;51.824;6.306;2022-08-01T18:17:58;6.70;;;2.33;;
73454;SDS011;61690;51.824;6.306;2022-08-01T18:20:24;6.93;;;2.40;;
73454;SDS011;61690;51.824;6.306;2022-08-01T18:22:49;6.67;;;2.33;;
73454;SDS011;61690;51.824;6.306;2022-08-01T18:25:15;8.15;;;2.40;;
73454;SDS011;61690;51.824;6.306;2022-08-01T18:27:41;6.53;;;2.00;;
73454;SDS011;61690;51.824;6.306;2022-08-01T18:30:06;10.83;;;1.77;;
73454;SDS011;61690;51.824;6.306;2022-08-01T18:32:33;4.40;;;1.42;;
73454;SDS011;61690;51.824;6.306;2022-08-01T18:34:58;6.45;;;1.70;;
73454;SDS011;61690;51.824;6.306;2022-08-01T18:37:24;4.97;;;1.90;;
73454;SDS011;61690;51.824;6.306;2022-08-01T18:39:49;6.77;;;1.80;;
73454;SDS011;61690;51.824;6.306;2022-08-01T18:42:15;5.67;;;1.70;;
73454;SDS011;61690;51.824;6.306;2022-08-01T18:44:41;5.38;;;1.88;;
73454;SDS011;61690;51.824;6.306;2022-08-01T18:47:06;6.03;;;1.80;;
73454;SDS011;61690;51.824;6.306;2022-08-01T18:49:31;7.93;;;2.00;;
73454;SDS011;61690;51.824;6.306;2022-08-01T18:51:57;6.23;;;1.80;;
73454;SDS011;61690;51.824;6.306;2022-08-01T18:54:22;9.50;;;1.90;;
73454;SDS011;61690;51.824;6.306;2022-08-01T18:56:49;5.15;;;1.80;;
73454;SDS011;61690;51.824;6.306;2022-08-01T18:59:15;5.03;;;1.80;;
73454;SDS011;61690;51.824;6.306;2022-08-01T19:01:40;7.43;;;1.50;;
73454;SDS011;61690;51.824;6.306;2022-08-01T19:04:05;6.30;;;1.60;;
73454;SDS011;61690;51.824;6.306;2022-08-01T19:06:31;8.38;;;1.63;;
73454;SDS011;61690;51.824;6.306;2022-08-01T19:08:56;5.60;;;1.70;;
73454;SDS011;61690;51.824;6.306;2022-08-01T19:11:22;7.83;;;1.87;;
73454;SDS011;61690;51.824;6.306;2022-08-01T19:13:47;5.07;;;1.63;;
73454;SDS011;61690;51.824;6.306;2022-08-01T19:16:14;5.10;;;1.90;;
73454;SDS011;61690;51.824;6.306;2022-08-01T19:18:40;5.37;;;1.90;;
73454;SDS011;61690;51.824;6.306;2022-08-01T19:21:06;5.47;;;2.13;;
73454;SDS011;61690;51.824;6.306;2022-08-01T19:23:32;5.67;;;1.60;;
73454;SDS011;61690;51.824;6.306;2022-08-01T19:26:18;6.40;;;1.60;;
73454;SDS011;61690;51.824;6.306;2022-08-01T19:28:48;4.35;;;1.27;;
73454;SDS011;61690;51.824;6.306;2022-08-01T19:31:15;6.07;;;1.60;;
73454;SDS011;61690;51.824;6.306;2022-08-01T19:33:46;4.63;;;1.50;;
73454;SDS011;61690;51.824;6.306;2022-08-01T19:36:14;4.78;;;1.38;;
73454;SDS011;61690;51.824;6.306;2022-08-01T19:38:41;5.05;;;1.50;;
73454;SDS011;61690;51.824;6.306;2022-08-01T19:41:07;4.90;;;1.70;;